Time;durP1;ratioP1;P1;durP2;ratioP2;P2;SDS_P1;SDS_P2;PMS_P1;PMS_P2;Temp;Humidity;BMP_temperature;BMP_pressure;BME280_temperature;BME280_humidity;BME280_pressure;Samples;Min_cycle;Max_cycle;Signal;HPM_P1;HPM_P2
2022/10/09 00:00:01;;;;;;;;;;;11.80;99.90;;;;;;5074778;28;20432;-66
2022/10/09 00:02:26;;;;;;;;;;;11.90;99.90;;;;;;5075327;28;19904;-66
2022/10/09 00:04:52;;;;;;;;;;;11.80;99.90;;;;;;5074698;28;19905;-66
2022/10/09 00:07:17;;;;;;;;;;;11.90;99.90;;;;;;5074553;28;20005;-66
2022/10/09 00:09:43;;;;;;;;;;;11.80;99.90;;;;;;5074426;28;19908;-66
2022/10/09 00:12:08;;;;;;;;;;;11.80;99.90;;;;;;5074394;28;19906;-66
2022/10/09 00:14:34;;;;;;;;;;;11.80;99.90;;;;;;5074055;28;19904;-67
2022/10/09 00:16:59;;;;;;;;;;;11.80;99.90;;;;;;5074629;28;19923;-66
2022/10/09 00:19:25;;;;;;;;;;;11.70;99.90;;;;;;5074121;28;19949;-67
2022/10/09 00:21:52;;;;;;;;;;;11.60;99.90;;;;;;5074335;28;19920;-66
2022/10/09 00:24:17;;;;;;;;;;;11.60;99.90;;;;;;5074153;28;20278;-66
2022/10/09 00:26:45;;;;;;;;;;;11.60;99.90;;;;;;5073864;28;19979;-67
2022/10/09 00:29:11;;;;;;;;;;;11.70;99.90;;;;;;5074738;28;19974;-66
2022/10/09 00:31:37;;;;;;;;;;;11.60;99.90;;;;;;5074063;28;20037;-66
2022/10/09 00:34:02;;;;;;;;;;;11.60;99.90;;;;;;5074157;28;19904;-66
2022/10/09 00:36:28;;;;;;;;;;;11.70;99.90;;;;;;5074249;28;20274;-66
2022/10/09 00:38:54;;;;;;;;;;;11.60;99.90;;;;;;5074327;28;19978;-66
2022/10/09 00:41:21;;;;;;;;;;;11.70;99.90;;;;;;5073839;28;19905;-66
2022/10/09 00:43:52;;;;;;;;;;;11.60;99.90;;;;;;5073854;28;19910;-66
2022/10/09 00:46:40;;;;;;;;;;;11.60;99.90;;;;;;5073751;28;20373;-66
2022/10/09 00:49:12;;;;;;;;;;;11.70;99.90;;;;;;5073854;28;20346;-66
2022/10/09 00:51:37;;;;;;;;;;;11.70;99.90;;;;;;5073675;28;19904;-67
2022/10/09 00:54:06;;;;;;;;;;;11.60;99.90;;;;;;5073377;28;20344;-67
2022/10/09 00:56:33;;;;;;;;;;;11.60;99.90;;;;;;5074094;28;19923;-67
2022/10/09 00:58:58;;;;;;;;;;;11.80;99.90;;;;;;5073796;28;20354;-67
2022/10/09 01:01:24;;;;;;;;;;;11.90;99.90;;;;;;5073588;28;19952;-67
2022/10/09 01:03:49;;;;;;;;;;;12.00;99.90;;;;;;5073956;28;19957;-66
2022/10/09 01:06:29;;;;;;;;;;;12.10;99.90;;;;;;5073398;28;19911;-66
2022/10/09 01:08:54;;;;;;;;;;;12.00;99.90;;;;;;5073121;28;19912;-67
2022/10/09 01:11:22;;;;;;;;;;;12.00;99.90;;;;;;5073353;28;19908;-67
2022/10/09 01:14:09;;;;;;;;;;;11.90;99.90;;;;;;5073358;28;20371;-67
2022/10/09 01:16:38;;;;;;;;;;;11.90;99.90;;;;;;5073417;28;19954;-66
2022/10/09 01:19:15;;;;;;;;;;;12.00;99.90;;;;;;5073404;28;19915;-66
2022/10/09 01:21:45;;;;;;;;;;;12.10;99.90;;;;;;5073154;28;19904;-66
2022/10/09 01:24:10;;;;;;;;;;;12.10;99.90;;;;;;5072821;28;19954;-67
2022/10/09 01:26:55;;;;;;;;;;;12.00;99.90;;;;;;5073088;28;20355;-66
2022/10/09 01:29:22;;;;;;;;;;;11.90;99.90;;;;;;5072865;28;19958;-66
2022/10/09 01:31:49;;;;;;;;;;;12.00;99.90;;;;;;5073258;28;20367;-66
2022/10/09 01:34:16;;;;;;;;;;;11.90;99.90;;;;;;5072909;28;20294;-67
2022/10/09 01:36:42;;;;;;;;;;;11.90;99.90;;;;;;5072739;28;19916;-67
2022/10/09 01:39:09;;;;;;;;;;;11.80;99.90;;;;;;5072935;28;20363;-66
2022/10/09 01:41:35;;;;;;;;;;;11.70;99.90;;;;;;5073237;28;20392;-66
2022/10/09 01:44:00;;;;;;;;;;;11.70;99.90;;;;;;5072949;28;20022;-66
2022/10/09 01:46:27;;;;;;;;;;;11.70;99.90;;;;;;5072749;28;19904;-67
2022/10/09 01:48:57;;;;;;;;;;;11.60;99.90;;;;;;5073026;28;20390;-66
2022/10/09 01:51:24;;;;;;;;;;;11.60;99.90;;;;;;5072582;28;19904;-67
2022/10/09 01:53:53;;;;;;;;;;;11.60;99.90;;;;;;5072104;28;19919;-66
2022/10/09 01:56:20;;;;;;;;;;;11.60;99.90;;;;;;5072815;28;19995;-66
2022/10/09 01:58:54;;;;;;;;;;;11.50;99.90;;;;;;5072565;28;19946;-66
2022/10/09 02:01:30;;;;;;;;;;;11.50;99.90;;;;;;5072615;28;19904;-66
2022/10/09 02:03:57;;;;;;;;;;;11.50;99.90;;;;;;5072953;28;19942;-67
2022/10/09 02:06:24;;;;;;;;;;;11.50;99.90;;;;;;5072175;28;19915;-67
2022/10/09 02:08:51;;;;;;;;;;;11.30;99.90;;;;;;5072383;28;20389;-67
2022/10/09 02:11:17;;;;;;;;;;;11.30;99.90;;;;;;5072419;28;20340;-67
2022/10/09 02:13:44;;;;;;;;;;;11.30;99.90;;;;;;5072375;28;19912;-66
2022/10/09 02:16:18;;;;;;;;;;;11.30;99.90;;;;;;5072786;28;19904;-67
2022/10/09 02:18:57;;;;;;;;;;;11.30;99.90;;;;;;5072291;28;19923;-66
2022/10/09 02:21:29;;;;;;;;;;;11.30;99.90;;;;;;5072186;28;20371;-66
2022/10/09 02:23:56;;;;;;;;;;;11.50;99.90;;;;;;5072417;28;19904;-66
2022/10/09 02:26:22;;;;;;;;;;;11.50;99.90;;;;;;5072712;28;19958;-67
2022/10/09 02:28:48;;;;;;;;;;;11.50;99.90;;;;;;5072200;28;19908;-66
2022/10/09 02:31:13;;;;;;;;;;;11.40;99.90;;;;;;5072772;28;20278;-67
2022/10/09 02:33:39;;;;;;;;;;;11.50;99.90;;;;;;5072225;28;19948;-67
2022/10/09 02:36:05;;;;;;;;;;;11.40;99.90;;;;;;5071832;28;19912;-66
2022/10/09 02:38:30;;;;;;;;;;;11.50;99.90;;;;;;5072190;28;19909;-67
2022/10/09 02:40:57;;;;;;;;;;;11.60;99.90;;;;;;5072755;28;19905;-66
2022/10/09 02:43:22;;;;;;;;;;;11.60;99.90;;;;;;5076262;28;19998;-66
2022/10/09 02:45:48;;;;;;;;;;;11.80;99.90;;;;;;5076119;28;20396;-67
2022/10/09 02:48:13;;;;;;;;;;;11.90;99.90;;;;;;5076527;28;19982;-66
2022/10/09 02:50:39;;;;;;;;;;;11.80;99.90;;;;;;5075803;28;19927;-66
2022/10/09 02:53:04;;;;;;;;;;;11.90;99.90;;;;;;5076109;28;20289;-66
2022/10/09 02:55:30;;;;;;;;;;;11.80;99.90;;;;;;5075589;28;19943;-67
2022/10/09 02:57:56;;;;;;;;;;;11.80;99.90;;;;;;5076356;28;19912;-66
2022/10/09 03:00:21;;;;;;;;;;;11.70;99.90;;;;;;5075885;28;19919;-67
2022/10/09 03:02:47;;;;;;;;;;;11.90;99.90;;;;;;5075683;28;19910;-67
2022/10/09 03:05:13;;;;;;;;;;;12.00;99.90;;;;;;5075453;28;19944;-67
2022/10/09 03:07:38;;;;;;;;;;;11.90;99.90;;;;;;5076223;28;19908;-67
2022/10/09 03:10:04;;;;;;;;;;;12.00;99.90;;;;;;5075622;28;20438;-67
2022/10/09 03:12:29;;;;;;;;;;;12.10;99.90;;;;;;5075721;28;19905;-67
2022/10/09 03:14:55;;;;;;;;;;;12.10;99.90;;;;;;5075943;28;20049;-66
2022/10/09 03:17:20;;;;;;;;;;;12.20;99.90;;;;;;5074750;28;19921;-67
2022/10/09 03:19:46;;;;;;;;;;;12.30;99.90;;;;;;5075563;28;20332;-67
2022/10/09 03:22:12;;;;;;;;;;;12.40;99.90;;;;;;5075453;28;19908;-66
2022/10/09 03:24:37;;;;;;;;;;;12.50;99.90;;;;;;5075691;28;19904;-67
2022/10/09 03:27:03;;;;;;;;;;;12.50;99.90;;;;;;5075496;28;20383;-66
2022/10/09 03:29:28;;;;;;;;;;;12.50;99.90;;;;;;5075385;28;19904;-67
2022/10/09 03:31:54;;;;;;;;;;;12.40;99.90;;;;;;5075629;28;19995;-66
2022/10/09 03:34:20;;;;;;;;;;;12.40;99.90;;;;;;5074925;28;20299;-66
2022/10/09 03:36:45;;;;;;;;;;;12.40;99.90;;;;;;5075130;28;19912;-66
2022/10/09 03:39:11;;;;;;;;;;;12.30;99.90;;;;;;5075730;28;20306;-66
2022/10/09 03:41:36;;;;;;;;;;;12.20;99.90;;;;;;5075008;28;20027;-66
2022/10/09 03:44:02;;;;;;;;;;;12.20;99.90;;;;;;5075113;28;19912;-66
2022/10/09 03:46:27;;;;;;;;;;;12.20;99.90;;;;;;5074742;28;19912;-67
2022/10/09 03:48:53;;;;;;;;;;;12.30;99.90;;;;;;5074860;28;20298;-66
2022/10/09 03:51:18;;;;;;;;;;;12.20;99.90;;;;;;5075019;28;19909;-67
2022/10/09 03:53:44;;;;;;;;;;;12.10;99.90;;;;;;5073975;28;19911;-66
2022/10/09 03:56:09;;;;;;;;;;;12.10;99.90;;;;;;5075126;28;19911;-67
2022/10/09 03:58:35;;;;;;;;;;;12.10;99.90;;;;;;5074878;28;19908;-66
2022/10/09 04:01:01;;;;;;;;;;;12.10;99.90;;;;;;5074792;28;19936;-66
2022/10/09 04:03:26;;;;;;;;;;;12.00;99.90;;;;;;5074441;28;19905;-67
2022/10/09 04:05:52;;;;;;;;;;;12.10;99.90;;;;;;5074708;28;19905;-66
2022/10/09 04:08:17;;;;;;;;;;;12.20;99.90;;;;;;5074621;28;19991;-66
2022/10/09 04:10:43;;;;;;;;;;;12.20;99.90;;;;;;5074475;28;20422;-67
2022/10/09 04:13:08;;;;;;;;;;;12.20;99.90;;;;;;5074908;28;20354;-67
2022/10/09 04:15:35;;;;;;;;;;;12.30;99.90;;;;;;5074461;28;19943;-67
2022/10/09 04:18:01;;;;;;;;;;;12.30;99.90;;;;;;5073749;28;19916;-66
2022/10/09 04:20:26;;;;;;;;;;;12.30;99.90;;;;;;5074408;28;19979;-67
2022/10/09 04:22:52;;;;;;;;;;;12.30;99.90;;;;;;5074668;28;19904;-67
2022/10/09 04:25:18;;;;;;;;;;;12.30;99.90;;;;;;5074328;28;20370;-67
2022/10/09 04:27:43;;;;;;;;;;;12.20;99.90;;;;;;5074355;28;19904;-67
2022/10/09 04:30:09;;;;;;;;;;;12.20;99.90;;;;;;5074455;28;19915;-67
2022/10/09 04:32:35;;;;;;;;;;;12.30;99.90;;;;;;5074414;28;19905;-66
2022/10/09 04:35:00;;;;;;;;;;;12.40;99.90;;;;;;5074127;28;19904;-66
2022/10/09 04:37:26;;;;;;;;;;;12.30;99.90;;;;;;5073879;28;19912;-67
2022/10/09 04:39:51;;;;;;;;;;;12.40;99.90;;;;;;5074113;28;19904;-67
2022/10/09 04:42:17;;;;;;;;;;;12.40;99.90;;;;;;5073079;28;19904;-67
2022/10/09 04:44:43;;;;;;;;;;;12.50;99.90;;;;;;5073700;28;20002;-66
2022/10/09 04:47:08;;;;;;;;;;;12.50;99.90;;;;;;5073605;28;19969;-67
2022/10/09 04:49:34;;;;;;;;;;;12.70;99.90;;;;;;5074209;28;19915;-67
2022/10/09 04:51:59;;;;;;;;;;;12.70;99.90;;;;;;5073672;28;19967;-67
2022/10/09 04:54:25;;;;;;;;;;;12.70;99.90;;;;;;5073826;28;19911;-67
2022/10/09 04:56:50;;;;;;;;;;;12.70;99.90;;;;;;5073596;28;19989;-67
2022/10/09 04:59:16;;;;;;;;;;;12.70;99.90;;;;;;5073527;28;20374;-66
2022/10/09 05:01:41;;;;;;;;;;;12.60;99.90;;;;;;5073796;28;19911;-67
2022/10/09 05:04:07;;;;;;;;;;;12.50;99.90;;;;;;5073068;28;20011;-67
2022/10/09 05:06:33;;;;;;;;;;;12.50;99.90;;;;;;5073626;28;19905;-67
2022/10/09 05:08:58;;;;;;;;;;;12.40;99.90;;;;;;5073819;28;19951;-67
2022/10/09 05:11:24;;;;;;;;;;;12.40;99.90;;;;;;5073218;28;19904;-66
2022/10/09 05:13:51;;;;;;;;;;;12.40;99.90;;;;;;5073352;28;19995;-67
2022/10/09 05:16:18;;;;;;;;;;;12.30;99.90;;;;;;5072845;28;19904;-67
2022/10/09 05:18:48;;;;;;;;;;;12.30;99.90;;;;;;5073237;28;19978;-67
2022/10/09 05:21:14;;;;;;;;;;;12.30;99.90;;;;;;5073286;28;19904;-67
2022/10/09 05:23:39;;;;;;;;;;;12.30;99.90;;;;;;5073221;28;19905;-67
2022/10/09 05:26:06;;;;;;;;;;;12.20;99.90;;;;;;5073575;28;20389;-66
2022/10/09 05:28:33;;;;;;;;;;;12.30;99.90;;;;;;5073130;28;20370;-66
2022/10/09 05:30:58;;;;;;;;;;;12.20;99.90;;;;;;5072817;28;19904;-67
2022/10/09 05:33:24;;;;;;;;;;;12.20;99.90;;;;;;5073018;28;19909;-67
2022/10/09 05:35:56;;;;;;;;;;;12.10;99.90;;;;;;5073426;28;19947;-66
2022/10/09 05:38:22;;;;;;;;;;;12.10;99.90;;;;;;5072793;28;20011;-67
2022/10/09 05:40:49;;;;;;;;;;;12.10;99.90;;;;;;5072895;28;19904;-67
2022/10/09 05:43:14;;;;;;;;;;;12.20;99.90;;;;;;5072907;28;19911;-66
2022/10/09 05:45:40;;;;;;;;;;;12.20;99.90;;;;;;5072653;28;20087;-67
2022/10/09 05:48:06;;;;;;;;;;;12.10;99.90;;;;;;5073123;28;19951;-66
2022/10/09 05:50:31;;;;;;;;;;;12.00;99.90;;;;;;5073010;28;19912;-66
2022/10/09 05:52:57;;;;;;;;;;;12.10;99.90;;;;;;5072820;28;20002;-67
2022/10/09 05:55:23;;;;;;;;;;;12.10;99.90;;;;;;5072666;28;20370;-67
2022/10/09 05:57:51;;;;;;;;;;;12.00;99.90;;;;;;5072419;28;20447;-67
2022/10/09 06:00:16;;;;;;;;;;;12.00;99.90;;;;;;5072932;28;19904;-66
2022/10/09 06:02:42;;;;;;;;;;;12.00;99.90;;;;;;5072675;28;20424;-66
2022/10/09 06:05:07;;;;;;;;;;;12.00;99.90;;;;;;5073208;28;20347;-67
2022/10/09 06:07:33;;;;;;;;;;;12.10;99.90;;;;;;5072488;28;20384;-67
2022/10/09 06:09:58;;;;;;;;;;;12.10;99.90;;;;;;5072836;28;19912;-67
2022/10/09 06:12:24;;;;;;;;;;;12.10;99.90;;;;;;5072281;28;19904;-67
2022/10/09 06:14:50;;;;;;;;;;;12.20;99.90;;;;;;5072168;28;19905;-67
2022/10/09 06:17:15;;;;;;;;;;;12.30;99.90;;;;;;5072197;28;19917;-67
2022/10/09 06:19:41;;;;;;;;;;;12.20;99.90;;;;;;5072408;28;19904;-67
2022/10/09 06:22:06;;;;;;;;;;;12.10;99.90;;;;;;5073057;28;19905;-67
2022/10/09 06:24:32;;;;;;;;;;;12.10;99.90;;;;;;5072436;28;19950;-67
2022/10/09 06:26:57;;;;;;;;;;;12.20;99.90;;;;;;5072274;28;20347;-66
2022/10/09 06:29:23;;;;;;;;;;;12.20;99.90;;;;;;5072040;28;19927;-66
2022/10/09 06:31:48;;;;;;;;;;;12.30;99.90;;;;;;5072377;28;19912;-67
2022/10/09 06:34:14;;;;;;;;;;;12.40;99.90;;;;;;5072359;28;19914;-67
2022/10/09 06:36:40;;;;;;;;;;;12.40;99.90;;;;;;5072204;28;19951;-67
2022/10/09 06:39:06;;;;;;;;;;;12.60;99.90;;;;;;5072277;28;20428;-67
2022/10/09 06:41:32;;;;;;;;;;;12.70;99.90;;;;;;5072531;28;20374;-67
2022/10/09 06:44:03;;;;;;;;;;;12.90;99.90;;;;;;5071973;28;19905;-67
2022/10/09 06:46:36;;;;;;;;;;;13.20;99.90;;;;;;5072211;28;19909;-67
2022/10/09 06:49:01;;;;;;;;;;;13.60;99.90;;;;;;5072186;28;20259;-67
2022/10/09 06:51:27;;;;;;;;;;;14.10;99.90;;;;;;5072305;28;19912;-67
2022/10/09 06:53:54;;;;;;;;;;;14.40;99.90;;;;;;5072102;28;20396;-67
2022/10/09 06:56:21;;;;;;;;;;;14.70;99.90;;;;;;5071772;28;19916;-67
2022/10/09 06:58:46;;;;;;;;;;;15.30;99.90;;;;;;5072070;28;20011;-67
2022/10/09 07:01:16;;;;;;;;;;;15.90;99.90;;;;;;5072392;28;20389;-67
2022/10/09 07:03:43;;;;;;;;;;;16.20;99.90;;;;;;5072073;28;19995;-67
2022/10/09 07:06:13;;;;;;;;;;;16.50;99.90;;;;;;5072027;28;19905;-66
2022/10/09 07:08:39;;;;;;;;;;;16.50;99.90;;;;;;5071801;28;19912;-67
2022/10/09 07:11:08;;;;;;;;;;;17.00;99.90;;;;;;5071764;28;19911;-67
2022/10/09 07:13:33;;;;;;;;;;;17.40;99.90;;;;;;5072156;28;19916;-67
2022/10/09 07:15:59;;;;;;;;;;;17.60;99.90;;;;;;5072460;28;20298;-67
2022/10/09 07:18:25;;;;;;;;;;;18.30;99.90;;;;;;5072048;28;19924;-67
2022/10/09 07:20:50;;;;;;;;;;;19.00;99.90;;;;;;5071871;28;19967;-67
2022/10/09 07:23:16;;;;;;;;;;;19.30;99.90;;;;;;5071961;28;19911;-67
2022/10/09 07:25:41;;;;;;;;;;;20.10;99.90;;;;;;5072151;28;20000;-67
2022/10/09 07:28:07;;;;;;;;;;;20.40;99.90;;;;;;5072416;28;19946;-67
2022/10/09 07:30:36;;;;;;;;;;;20.80;99.90;;;;;;5075441;28;19930;-66
2022/10/09 07:33:01;;;;;;;;;;;20.70;99.90;;;;;;5075414;28;19913;-66
2022/10/09 07:35:27;;;;;;;;;;;21.60;99.90;;;;;;5073964;28;20286;-67
2022/10/09 07:37:53;;;;;;;;;;;22.30;99.90;;;;;;5076114;28;19919;-66
2022/10/09 07:40:18;;;;;;;;;;;22.10;99.90;;;;;;5075336;28;20363;-67
2022/10/09 07:42:44;;;;;;;;;;;22.70;99.90;;;;;;5075530;28;20316;-67
2022/10/09 07:45:10;;;;;;;;;;;21.70;99.90;;;;;;5074973;28;19908;-67
2022/10/09 07:47:35;;;;;;;;;;;21.80;99.90;;;;;;5075048;28;19962;-67
2022/10/09 07:50:01;;;;;;;;;;;22.80;99.90;;;;;;5075074;28;20434;-67
2022/10/09 07:52:26;;;;;;;;;;;22.80;99.90;;;;;;5075008;28;20386;-66
2022/10/09 07:54:52;;;;;;;;;;;23.80;99.90;;;;;;5074811;28;19986;-66
2022/10/09 07:57:17;;;;;;;;;;;24.30;99.90;;;;;;5074865;28;19979;-66
2022/10/09 07:59:43;;;;;;;;;;;23.50;99.90;;;;;;5074811;28;19973;-66
2022/10/09 08:02:09;;;;;;;;;;;23.50;99.90;;;;;;5074745;28;19904;-66
2022/10/09 08:04:35;;;;;;;;;;;24.80;99.90;;;;;;5075085;28;19912;-66
2022/10/09 08:07:01;;;;;;;;;;;25.10;99.90;;;;;;5074827;28;20053;-66
2022/10/09 08:09:26;;;;;;;;;;;25.50;99.90;;;;;;5074378;28;19983;-66
2022/10/09 08:11:52;;;;;;;;;;;26.80;99.90;;;;;;5074474;28;19904;-66
2022/10/09 08:14:17;;;;;;;;;;;25.40;99.90;;;;;;5074650;28;19915;-67
2022/10/09 08:16:43;;;;;;;;;;;27.60;99.90;;;;;;5074221;28;20006;-67
2022/10/09 08:19:09;;;;;;;;;;;27.90;99.90;;;;;;5074664;28;20003;-66
2022/10/09 08:21:34;;;;;;;;;;;27.70;99.90;;;;;;5074616;28;19904;-66
2022/10/09 08:24:00;;;;;;;;;;;26.50;99.90;;;;;;5074330;28;19911;-66
2022/10/09 08:26:27;;;;;;;;;;;26.40;99.90;;;;;;5073972;28;19957;-66
2022/10/09 08:28:55;;;;;;;;;;;26.50;99.90;;;;;;5074350;28;19912;-66
2022/10/09 08:31:21;;;;;;;;;;;27.30;99.90;;;;;;5074671;28;19904;-66
2022/10/09 08:33:50;;;;;;;;;;;27.40;99.90;;;;;;5074218;28;19905;-66
2022/10/09 08:36:15;;;;;;;;;;;28.70;99.90;;;;;;5073723;28;19983;-66
2022/10/09 08:38:41;;;;;;;;;;;28.30;99.90;;;;;;5073822;28;19962;-66
2022/10/09 08:41:22;;;;;;;;;;;28.30;99.90;;;;;;5073901;28;20037;-66
2022/10/09 08:43:49;;;;;;;;;;;29.20;99.60;;;;;;5073968;28;20328;-66
2022/10/09 08:46:30;;;;;;;;;;;30.40;99.20;;;;;;5073959;28;19958;-66
2022/10/09 08:48:57;;;;;;;;;;;31.10;98.40;;;;;;5074316;28;20404;-66
2022/10/09 08:51:31;;;;;;;;;;;30.50;98.20;;;;;;5073754;28;19904;-65
2022/10/09 08:54:05;;;;;;;;;;;30.00;98.20;;;;;;5073561;28;19904;-65
2022/10/09 08:56:32;;;;;;;;;;;30.60;97.30;;;;;;5073602;28;19904;-66
2022/10/09 08:58:57;;;;;;;;;;;30.40;96.70;;;;;;5073677;28;19904;-65
2022/10/09 09:01:40;;;;;;;;;;;30.60;97.40;;;;;;5074045;28;19904;-66
2022/10/09 09:04:26;;;;;;;;;;;30.70;96.90;;;;;;5073661;28;19943;-65
2022/10/09 09:06:51;;;;;;;;;;;32.70;95.10;;;;;;5073110;28;19916;-66
2022/10/09 09:09:36;;;;;;;;;;;31.20;96.20;;;;;;5073405;28;19905;-66
2022/10/09 09:12:16;;;;;;;;;;;32.60;94.80;;;;;;5073273;28;20339;-66
2022/10/09 09:14:59;;;;;;;;;;;33.00;94.60;;;;;;5072404;28;19957;-66
2022/10/09 09:17:45;;;;;;;;;;;32.70;95.10;;;;;;5072967;28;20003;-65
2022/10/09 09:20:17;;;;;;;;;;;31.70;95.10;;;;;;5062217;28;19908;-66
2022/10/09 09:22:46;;;;;;;;;;;33.70;94.10;;;;;;5071627;28;19930;-66
2022/10/09 09:25:17;;;;;;;;;;;35.00;92.00;;;;;;5073556;28;19908;-66
2022/10/09 09:27:43;;;;;;;;;;;34.40;92.40;;;;;;5071974;28;19908;-66
2022/10/09 09:30:12;;;;;;;;;;;32.80;92.80;;;;;;5073081;28;20397;-66
2022/10/09 09:33:07;;;;;;;;;;;32.00;93.00;;;;;;5073084;28;19905;-66
2022/10/09 09:35:45;;;;;;;;;;;32.90;93.00;;;;;;5010529;28;19909;-66
2022/10/09 09:38:14;;;;;;;;;;;35.00;91.10;;;;;;5010999;28;20003;-66
2022/10/09 09:40:40;;;;;;;;;;;33.60;91.10;;;;;;5011154;28;19921;-66
2022/10/09 09:43:26;;;;;;;;;;;33.50;92.10;;;;;;5011040;28;19960;-66
2022/10/09 09:45:52;;;;;;;;;;;32.80;92.40;;;;;;5010328;28;20311;-66
2022/10/09 09:48:32;;;;;;;;;;;34.50;91.40;;;;;;5010904;28;19944;-65
2022/10/09 09:50:57;;;;;;;;;;;34.70;91.10;;;;;;5010011;28;20376;-65
2022/10/09 09:53:23;;;;;;;;;;;34.40;91.00;;;;;;5011266;28;19968;-66
2022/10/09 09:55:52;;;;;;;;;;;35.80;88.30;;;;;;5010872;28;19909;-64
2022/10/09 09:58:18;;;;;;;;;;;34.10;90.70;;;;;;5010680;28;19917;-65
2022/10/09 10:00:54;;;;;;;;;;;36.60;87.70;;;;;;5010732;28;19905;-65
2022/10/09 10:03:20;;;;;;;;;;;34.40;88.70;;;;;;5010970;28;19909;-63
2022/10/09 10:05:46;;;;;;;;;;;35.40;87.20;;;;;;5010470;28;19913;-65
2022/10/09 10:08:21;;;;;;;;;;;34.60;89.30;;;;;;5010739;28;19909;-65
2022/10/09 10:10:48;;;;;;;;;;;36.00;88.80;;;;;;5012176;28;19905;-64
2022/10/09 10:13:21;;;;;;;;;;;35.20;87.20;;;;;;5052669;28;20349;-65
2022/10/09 10:15:49;;;;;;;;;;;33.90;89.70;;;;;;5052383;28;20294;-66
2022/10/09 10:18:15;;;;;;;;;;;33.70;90.20;;;;;;5052497;28;19960;-65
2022/10/09 10:20:48;;;;;;;;;;;34.50;88.80;;;;;;5052071;28;20393;-65
2022/10/09 10:23:33;;;;;;;;;;;35.50;86.60;;;;;;5052502;28;19912;-66
2022/10/09 10:26:00;;;;;;;;;;;35.20;86.20;;;;;;5052354;28;19905;-65
2022/10/09 10:28:28;;;;;;;;;;;32.30;90.00;;;;;;5052847;28;19927;-66
2022/10/09 10:30:54;;;;;;;;;;;36.50;88.90;;;;;;5052739;28;19927;-65
2022/10/09 10:33:23;;;;;;;;;;;38.00;83.00;;;;;;5052477;28;19928;-65
2022/10/09 10:35:50;;;;;;;;;;;39.10;80.50;;;;;;5051884;28;19927;-66
2022/10/09 10:38:19;;;;;;;;;;;36.80;81.80;;;;;;5052163;28;19913;-66
2022/10/09 10:41:05;;;;;;;;;;;34.90;84.50;;;;;;5052225;28;19911;-66
2022/10/09 10:43:44;;;;;;;;;;;35.10;85.20;;;;;;4990648;28;19913;-65
2022/10/09 10:46:10;;;;;;;;;;;36.40;83.90;;;;;;5005439;28;19909;-66
2022/10/09 10:48:44;;;;;;;;;;;35.90;82.80;;;;;;5010366;28;19913;-66
2022/10/09 10:51:12;;;;;;;;;;;36.90;82.80;;;;;;5010267;28;19917;-66
2022/10/09 10:53:56;;;;;;;;;;;37.40;81.40;;;;;;5010250;28;19921;-66
2022/10/09 10:56:25;;;;;;;;;;;37.60;79.20;;;;;;5010945;28;19928;-65
2022/10/09 10:58:59;;;;;;;;;;;35.90;81.30;;;;;;5010423;28;19967;-66
2022/10/09 11:01:25;;;;;;;;;;;34.30;81.40;;;;;;5010057;28;19905;-66
2022/10/09 11:03:50;;;;;;;;;;;30.10;87.60;;;;;;5013100;28;19905;-65
2022/10/09 11:06:22;;;;;;;;;;;29.20;90.80;;;;;;5014018;28;20368;-65
2022/10/09 11:09:08;;;;;;;;;;;28.90;91.40;;;;;;5013714;28;20388;-66
2022/10/09 11:11:36;;;;;;;;;;;29.00;91.50;;;;;;5012996;28;19941;-66
2022/10/09 11:14:01;;;;;;;;;;;30.50;91.70;;;;;;5013751;28;20003;-66
2022/10/09 11:16:49;;;;;;;;;;;30.00;90.80;;;;;;5013283;28;20574;-65
2022/10/09 11:19:27;;;;;;;;;;;29.00;92.30;;;;;;5013342;28;19905;-66
2022/10/09 11:21:58;;;;;;;;;;;28.60;92.90;;;;;;5056030;28;19905;-65
2022/10/09 11:24:29;;;;;;;;;;;28.20;92.80;;;;;;5055526;28;19904;-66
2022/10/09 11:26:55;;;;;;;;;;;28.60;93.20;;;;;;5055311;28;19905;-65
2022/10/09 11:29:23;;;;;;;;;;;29.00;92.10;;;;;;5055281;28;20306;-66
2022/10/09 11:31:55;;;;;;;;;;;29.40;90.90;;;;;;5055269;28;19912;-65
2022/10/09 11:34:35;;;;;;;;;;;28.40;93.20;;;;;;5055681;28;19905;-66
2022/10/09 11:37:05;;;;;;;;;;;29.40;91.80;;;;;;5055151;28;20309;-65
2022/10/09 11:39:31;;;;;;;;;;;28.70;92.90;;;;;;5055303;28;19909;-66
2022/10/09 11:41:57;;;;;;;;;;;27.90;92.80;;;;;;5055251;28;20046;-66
2022/10/09 11:44:31;;;;;;;;;;;28.10;93.20;;;;;;5056094;28;19905;-65
2022/10/09 11:46:57;;;;;;;;;;;28.20;92.80;;;;;;5074931;28;19908;-66
2022/10/09 11:49:22;;;;;;;;;;;27.00;94.20;;;;;;5074981;28;19905;-66
2022/10/09 11:51:59;;;;;;;;;;;28.30;93.30;;;;;;5075381;28;19926;-66
2022/10/09 11:54:26;;;;;;;;;;;29.80;93.30;;;;;;5075213;28;19904;-66
2022/10/09 11:56:56;;;;;;;;;;;30.00;91.50;;;;;;5074941;28;19916;-65
2022/10/09 11:59:29;;;;;;;;;;;29.10;92.30;;;;;;5075223;28;19916;-66
2022/10/09 12:01:55;;;;;;;;;;;29.20;92.40;;;;;;5074465;28;20377;-65
2022/10/09 12:04:20;;;;;;;;;;;28.00;92.60;;;;;;5073513;28;19999;-65
2022/10/09 12:06:50;;;;;;;;;;;28.00;92.40;;;;;;5074616;28;19904;-65
2022/10/09 12:09:21;;;;;;;;;;;28.20;92.90;;;;;;5074801;28;19911;-65
2022/10/09 12:12:07;;;;;;;;;;;28.20;92.50;;;;;;5074709;28;19916;-66
2022/10/09 12:14:34;;;;;;;;;;;28.20;92.40;;;;;;5073695;28;19905;-66
2022/10/09 12:16:59;;;;;;;;;;;28.30;92.20;;;;;;5074250;28;20371;-66
2022/10/09 12:19:25;;;;;;;;;;;27.30;93.00;;;;;;5074688;28;19904;-65
2022/10/09 12:21:57;;;;;;;;;;;28.00;92.60;;;;;;5074640;28;19904;-65
2022/10/09 12:24:25;;;;;;;;;;;28.30;92.30;;;;;;5074334;28;20007;-66
2022/10/09 12:26:52;;;;;;;;;;;28.10;92.40;;;;;;5074783;28;19904;-65
2022/10/09 12:29:24;;;;;;;;;;;28.20;91.60;;;;;;5074206;28;19912;-66
2022/10/09 12:31:50;;;;;;;;;;;28.10;92.10;;;;;;5074089;28;19904;-65
2022/10/09 12:34:17;;;;;;;;;;;28.10;92.80;;;;;;5074246;28;20317;-65
2022/10/09 12:36:43;;;;;;;;;;;27.90;92.60;;;;;;5074070;28;19961;-66
2022/10/09 12:39:19;;;;;;;;;;;27.40;92.50;;;;;;5074287;28;20003;-66
2022/10/09 12:41:45;;;;;;;;;;;27.40;93.30;;;;;;5074078;28;19904;-66
2022/10/09 12:44:16;;;;;;;;;;;27.70;93.50;;;;;;5074083;28;19908;-66
2022/10/09 12:46:42;;;;;;;;;;;28.00;93.50;;;;;;5073615;28;20384;-66
2022/10/09 12:49:15;;;;;;;;;;;28.10;93.70;;;;;;5073960;28;19962;-65
2022/10/09 12:51:48;;;;;;;;;;;28.50;92.70;;;;;;5073951;28;19904;-65
2022/10/09 12:54:14;;;;;;;;;;;28.40;92.80;;;;;;5074191;28;19905;-65
2022/10/09 12:56:39;;;;;;;;;;;27.40;93.20;;;;;;5073610;28;19986;-65
2022/10/09 12:59:05;;;;;;;;;;;27.50;93.00;;;;;;5073543;28;20290;-65
2022/10/09 13:01:32;;;;;;;;;;;27.60;92.60;;;;;;5073980;28;20402;-65
2022/10/09 13:04:18;;;;;;;;;;;27.60;92.80;;;;;;5073758;28;19904;-65
2022/10/09 13:06:46;;;;;;;;;;;27.60;92.60;;;;;;5073713;28;19908;-65
2022/10/09 13:09:22;;;;;;;;;;;27.50;92.30;;;;;;5073725;28;20418;-65
2022/10/09 13:11:58;;;;;;;;;;;27.40;92.50;;;;;;5073273;28;19908;-65
2022/10/09 13:14:32;;;;;;;;;;;27.60;92.20;;;;;;5073222;28;19950;-66
2022/10/09 13:16:58;;;;;;;;;;;27.80;91.40;;;;;;5073181;28;19924;-65
2022/10/09 13:19:25;;;;;;;;;;;27.90;92.00;;;;;;5073741;28;19904;-66
2022/10/09 13:22:14;;;;;;;;;;;27.70;91.60;;;;;;5073457;28;19970;-65
2022/10/09 13:24:40;;;;;;;;;;;27.70;91.30;;;;;;5073117;28;19912;-66
2022/10/09 13:27:06;;;;;;;;;;;27.10;92.20;;;;;;5072067;28;19909;-66
2022/10/09 13:29:31;;;;;;;;;;;27.50;92.50;;;;;;5072857;28;20357;-65
2022/10/09 13:31:57;;;;;;;;;;;27.40;91.70;;;;;;5073629;28;19904;-65
2022/10/09 13:34:23;;;;;;;;;;;27.50;93.40;;;;;;5073181;28;19904;-65
2022/10/09 13:36:49;;;;;;;;;;;27.50;92.20;;;;;;5072754;28;20298;-66
2022/10/09 13:39:15;;;;;;;;;;;27.40;92.10;;;;;;5073090;28;19905;-66
2022/10/09 13:41:41;;;;;;;;;;;27.80;91.90;;;;;;5072897;28;20370;-66
2022/10/09 13:44:07;;;;;;;;;;;27.00;91.90;;;;;;5072793;28;20416;-66
2022/10/09 13:46:32;;;;;;;;;;;26.80;92.50;;;;;;5072778;28;19909;-65
2022/10/09 13:48:58;;;;;;;;;;;26.60;92.40;;;;;;5072692;28;20287;-65
2022/10/09 13:51:23;;;;;;;;;;;26.70;93.30;;;;;;5072753;28;19932;-65
2022/10/09 13:53:49;;;;;;;;;;;27.40;92.20;;;;;;5073224;28;20005;-66
2022/10/09 13:56:15;;;;;;;;;;;27.40;93.90;;;;;;5072554;28;20285;-66
2022/10/09 13:58:40;;;;;;;;;;;27.70;92.80;;;;;;5072456;28;20492;-66
2022/10/09 14:01:07;;;;;;;;;;;27.70;92.40;;;;;;5072729;28;19927;-65
2022/10/09 14:03:32;;;;;;;;;;;27.70;92.70;;;;;;5073004;28;20301;-65
2022/10/09 14:05:59;;;;;;;;;;;27.90;92.50;;;;;;5072589;28;19904;-66
2022/10/09 14:08:24;;;;;;;;;;;27.70;91.90;;;;;;5072523;28;20450;-66
2022/10/09 14:10:50;;;;;;;;;;;27.70;92.40;;;;;;5072411;28;19952;-66
2022/10/09 14:13:15;;;;;;;;;;;27.80;92.50;;;;;;5072170;28;19961;-66
2022/10/09 14:15:41;;;;;;;;;;;27.80;92.10;;;;;;5072374;28;19958;-65
2022/10/09 14:18:07;;;;;;;;;;;27.60;92.20;;;;;;5072494;28;19916;-66
2022/10/09 14:20:33;;;;;;;;;;;27.30;91.90;;;;;;5072511;28;20267;-66